Time;durP1;ratioP1;P1;durP2;ratioP2;P2;SDS_P1;SDS_P2;PMS_P1;PMS_P2;Temp;Humidity;BMP_temperature;BMP_pressure;BME280_temperature;BME280_humidity;BME280_pressure;Samples;Min_cycle;Max_cycle;Signal;HPM_P1;HPM_P2
2023/09/29 00:00:13;;;;;;;3.00;2.20;;;20.90;99.90;;;;;;5032536;28;20467;-37
2023/09/29 00:02:39;;;;;;;3.20;2.20;;;20.90;99.90;;;;;;5032418;28;20029;-37
2023/09/29 00:05:06;;;;;;;2.78;2.10;;;20.90;99.90;;;;;;5032301;28;20061;-40
2023/09/29 00:07:31;;;;;;;3.35;2.17;;;20.90;99.90;;;;;;5032083;28;20029;-37
2023/09/29 00:09:57;;;;;;;6.85;2.40;;;20.90;99.90;;;;;;5032321;28;20530;-36
2023/09/29 00:12:22;;;;;;;7.28;2.10;;;20.90;99.90;;;;;;5032272;28;20032;-38
2023/09/29 00:14:48;;;;;;;5.47;2.20;;;20.90;99.90;;;;;;5032508;28;20053;-36
2023/09/29 00:17:14;;;;;;;3.55;2.10;;;20.90;99.90;;;;;;5032069;28;20430;-37
2023/09/29 00:19:39;;;;;;;6.63;2.15;;;20.90;99.90;;;;;;5032127;28;20029;-39
2023/09/29 00:22:05;;;;;;;5.22;2.22;;;20.80;99.90;;;;;;5032030;28;20471;-36
2023/09/29 00:24:30;;;;;;;5.68;2.60;;;20.90;99.90;;;;;;5032027;28;20029;-38
2023/09/29 00:26:56;;;;;;;5.95;2.60;;;20.80;99.90;;;;;;5031878;28;20025;-37
2023/09/29 00:29:21;;;;;;;2.30;2.05;;;20.90;99.90;;;;;;5032128;28;20424;-37
2023/09/29 00:31:47;;;;;;;4.15;2.17;;;20.80;99.90;;;;;;5032219;28;20095;-35
2023/09/29 00:34:13;;;;;;;4.20;2.35;;;20.80;99.90;;;;;;5031389;28;20036;-37
2023/09/29 00:36:39;;;;;;;4.57;2.28;;;20.80;99.90;;;;;;5031517;28;20363;-39
2023/09/29 00:39:08;;;;;;;5.20;2.50;;;20.80;99.90;;;;;;5032080;28;20033;-37
2023/09/29 00:41:33;;;;;;;3.55;2.15;;;20.80;99.90;;;;;;5031834;28;20031;-35
2023/09/29 00:43:59;;;;;;;5.85;2.83;;;20.80;99.90;;;;;;5031794;28;20013;-37
2023/09/29 00:46:25;;;;;;;6.30;2.15;;;20.80;99.90;;;;;;5031392;28;20549;-37
2023/09/29 00:48:52;;;;;;;3.15;1.95;;;20.80;99.90;;;;;;5032169;28;20497;-37
2023/09/29 00:51:21;;;;;;;3.25;2.10;;;20.80;99.90;;;;;;5031501;28;20037;-36
2023/09/29 00:53:48;;;;;;;4.50;2.33;;;20.80;99.90;;;;;;5031644;28;20025;-39
2023/09/29 00:56:14;;;;;;;3.97;2.30;;;20.80;99.90;;;;;;5031304;28;20032;-36
2023/09/29 00:58:40;;;;;;;2.70;2.20;;;20.80;99.90;;;;;;5031604;28;20025;-37
2023/09/29 01:01:07;;;;;;;3.70;2.33;;;20.80;99.90;;;;;;5031484;28;20498;-37
2023/09/29 01:03:33;;;;;;;3.13;2.17;;;20.80;99.90;;;;;;5031482;28;20037;-38
2023/09/29 01:05:59;;;;;;;3.35;2.17;;;20.80;99.90;;;;;;5031201;28;20030;-41
2023/09/29 01:08:26;;;;;;;3.20;2.17;;;20.80;99.90;;;;;;5031467;28;20025;-39
2023/09/29 01:10:55;;;;;;;3.17;2.20;;;20.80;99.90;;;;;;5013648;28;20036;-39
2023/09/29 01:13:22;;;;;;;3.63;2.33;;;20.80;99.90;;;;;;5031389;28;20036;-37
2023/09/29 01:15:49;;;;;;;5.97;2.47;;;20.80;99.90;;;;;;5031104;28;20017;-37
2023/09/29 01:18:16;;;;;;;2.60;2.00;;;20.80;99.90;;;;;;5031217;28;20076;-36
2023/09/29 01:20:43;;;;;;;5.60;2.30;;;20.80;99.90;;;;;;5031185;28;20052;-37
2023/09/29 01:23:09;;;;;;;3.38;2.25;;;20.80;99.90;;;;;;5031289;28;20467;-37
2023/09/29 01:25:36;;;;;;;3.05;2.47;;;20.80;99.90;;;;;;5030848;28;20344;-37
2023/09/29 01:28:07;;;;;;;4.25;2.55;;;20.80;99.90;;;;;;5031239;28;20030;-39
2023/09/29 01:30:33;;;;;;;3.63;2.15;;;20.80;99.90;;;;;;5031646;28;20029;-35
2023/09/29 01:32:59;;;;;;;3.83;2.35;;;20.80;99.90;;;;;;5031181;28;20033;-37
2023/09/29 01:35:27;;;;;;;3.72;2.05;;;20.80;99.90;;;;;;5030970;28;20100;-37
2023/09/29 01:37:55;;;;;;;2.83;2.20;;;20.80;99.90;;;;;;5031080;28;20033;-38
2023/09/29 01:40:22;;;;;;;4.53;2.30;;;20.70;99.90;;;;;;5031074;28;20022;-39
2023/09/29 01:42:49;;;;;;;2.78;2.00;;;20.80;99.90;;;;;;5031100;28;20030;-37
2023/09/29 01:45:15;;;;;;;3.80;2.13;;;20.70;99.90;;;;;;5030666;28;20533;-41
2023/09/29 01:47:43;;;;;;;2.65;2.10;;;20.80;99.90;;;;;;5033867;28;20033;-39
2023/09/29 01:50:14;;;;;;;3.85;2.45;;;20.80;99.90;;;;;;5034987;28;20029;-37
2023/09/29 01:52:41;;;;;;;4.00;2.45;;;20.70;99.90;;;;;;5035019;28;20104;-37
2023/09/29 01:55:12;;;;;;;2.95;2.10;;;20.70;99.90;;;;;;5034724;28;20475;-37
2023/09/29 01:57:38;;;;;;;3.60;2.05;;;20.80;99.90;;;;;;5034823;28;20033;-36
2023/09/29 02:00:05;;;;;;;3.72;2.28;;;20.70;99.90;;;;;;5034652;28;20037;-40
2023/09/29 02:02:31;;;;;;;4.88;2.30;;;20.80;99.90;;;;;;5034745;28;20108;-39
2023/09/29 02:04:56;;;;;;;4.80;2.30;;;20.70;99.90;;;;;;5034793;28;20092;-39
2023/09/29 02:07:23;;;;;;;3.60;1.98;;;20.70;99.90;;;;;;5034543;28;20445;-38
2023/09/29 02:09:49;;;;;;;3.22;2.10;;;20.70;99.90;;;;;;5034601;28;20021;-39
2023/09/29 02:12:17;;;;;;;4.82;2.35;;;20.70;99.90;;;;;;5016639;28;20037;-39
2023/09/29 02:14:42;;;;;;;3.67;2.08;;;20.70;99.90;;;;;;5034473;28;20044;-39
2023/09/29 02:17:09;;;;;;;6.15;2.25;;;20.70;99.90;;;;;;5034439;28;20479;-37
2023/09/29 02:19:35;;;;;;;3.08;2.13;;;20.70;99.90;;;;;;5034498;28;20022;-37
2023/09/29 02:22:03;;;;;;;2.70;2.05;;;20.70;99.90;;;;;;5034345;28;20021;-42
2023/09/29 02:24:29;;;;;;;2.78;2.00;;;20.70;99.90;;;;;;5034260;28;20036;-37
2023/09/29 02:26:55;;;;;;;3.75;2.38;;;20.70;99.90;;;;;;5034138;28;20045;-37
2023/09/29 02:29:20;;;;;;;4.93;2.45;;;20.70;99.90;;;;;;5034706;28;20506;-38
2023/09/29 02:31:46;;;;;;;3.45;2.15;;;20.70;99.90;;;;;;5034242;28;20033;-39
2023/09/29 02:34:12;;;;;;;4.05;2.65;;;20.70;99.90;;;;;;5034421;28;20061;-43
2023/09/29 02:36:40;;;;;;;2.63;2.15;;;20.70;99.90;;;;;;5033954;28;20029;-39
2023/09/29 02:39:08;;;;;;;4.15;2.38;;;20.70;99.90;;;;;;5034499;28;20104;-42
2023/09/29 02:41:34;;;;;;;2.97;2.42;;;20.70;99.90;;;;;;5034394;28;20478;-38
2023/09/29 02:43:59;;;;;;;3.85;2.13;;;20.70;99.90;;;;;;5034098;28;20113;-40
2023/09/29 02:46:25;;;;;;;3.03;2.25;;;20.70;99.90;;;;;;5033577;28;20033;-37
2023/09/29 02:48:50;;;;;;;2.75;2.10;;;20.60;99.90;;;;;;5033965;28;20029;-42
2023/09/29 02:51:17;;;;;;;3.30;2.50;;;20.70;99.90;;;;;;5033847;28;20108;-42
2023/09/29 02:53:43;;;;;;;4.85;2.13;;;20.70;99.90;;;;;;5033808;28;20034;-38
2023/09/29 02:56:12;;;;;;;3.63;2.50;;;20.60;99.90;;;;;;5033424;28;20033;-39
2023/09/29 02:58:41;;;;;;;3.45;2.17;;;20.70;99.90;;;;;;5033420;28;20067;-39
2023/09/29 03:01:16;;;;;;;4.15;2.35;;;20.60;99.90;;;;;;5033571;28;20474;-40
2023/09/29 03:03:43;;;;;;;3.90;2.30;;;20.60;99.90;;;;;;5033722;28;20091;-41
2023/09/29 03:06:16;;;;;;;3.25;2.05;;;20.70;99.90;;;;;;5033382;28;20104;-39
2023/09/29 03:08:42;;;;;;;2.97;2.20;;;20.70;99.90;;;;;;5033437;28;20025;-38
2023/09/29 03:11:09;;;;;;;4.45;2.25;;;20.60;99.90;;;;;;5033459;28;20025;-43
2023/09/29 03:13:37;;;;;;;4.35;2.33;;;20.60;99.90;;;;;;5033467;28;20076;-41
2023/09/29 03:16:07;;;;;;;4.32;2.08;;;20.60;99.90;;;;;;5033200;28;20036;-39
2023/09/29 03:18:34;;;;;;;4.82;2.15;;;20.60;99.90;;;;;;5033394;28;20079;-39
2023/09/29 03:21:00;;;;;;;3.78;2.08;;;20.60;99.90;;;;;;5033228;28;20485;-38
2023/09/29 03:23:26;;;;;;;6.43;2.47;;;20.60;99.90;;;;;;5033231;28;20534;-41
2023/09/29 03:25:53;;;;;;;2.50;1.90;;;20.60;99.90;;;;;;5033051;28;20100;-38
2023/09/29 03:28:18;;;;;;;4.38;2.10;;;20.60;99.90;;;;;;5033395;28;20021;-40
2023/09/29 03:30:44;;;;;;;2.85;1.90;;;20.60;99.90;;;;;;5033149;28;20495;-38
2023/09/29 03:33:10;;;;;;;5.53;2.10;;;20.60;99.90;;;;;;5033067;28;20041;-41
2023/09/29 03:35:35;;;;;;;7.53;2.00;;;20.60;99.90;;;;;;5032813;28;20036;-41
2023/09/29 03:38:05;;;;;;;4.80;2.33;;;20.60;99.90;;;;;;5033107;28;20078;-41
2023/09/29 03:40:31;;;;;;;3.33;2.30;;;20.60;99.90;;;;;;5032955;28;20048;-37
2023/09/29 03:42:58;;;;;;;3.88;2.20;;;20.60;99.90;;;;;;5032937;28;20021;-40
2023/09/29 03:45:25;;;;;;;3.53;2.30;;;20.60;99.90;;;;;;5032610;28;20022;-39
2023/09/29 03:47:51;;;;;;;5.35;2.28;;;20.60;99.90;;;;;;5033346;28;20533;-33
2023/09/29 03:50:17;;;;;;;6.38;2.35;;;20.60;99.90;;;;;;5032705;28;20080;-33
2023/09/29 03:52:45;;;;;;;3.63;2.35;;;20.60;99.90;;;;;;5032691;28;20037;-33
2023/09/29 03:55:13;;;;;;;3.17;2.28;;;20.60;99.90;;;;;;5032536;28;20029;-33
2023/09/29 03:57:41;;;;;;;3.72;2.25;;;20.60;99.90;;;;;;5032794;28;20533;-33
2023/09/29 04:00:12;;;;;;;2.88;2.20;;;20.60;99.90;;;;;;5032532;28;20092;-36
2023/09/29 04:02:40;;;;;;;2.85;2.28;;;20.60;99.90;;;;;;5032564;28;20076;-33
2023/09/29 04:05:05;;;;;;;3.15;2.25;;;20.60;99.90;;;;;;5032292;28;20045;-33
2023/09/29 04:07:31;;;;;;;2.88;1.85;;;20.60;99.90;;;;;;5032514;28;20064;-32
2023/09/29 04:09:57;;;;;;;3.47;2.08;;;20.60;99.90;;;;;;5031484;28;20048;-34
2023/09/29 04:12:22;;;;;;;4.03;2.35;;;20.60;99.90;;;;;;5032332;28;20100;-33
2023/09/29 04:14:48;;;;;;;3.03;2.20;;;20.60;99.90;;;;;;5032153;28;20064;-33
2023/09/29 04:17:14;;;;;;;3.55;2.28;;;20.60;99.90;;;;;;5032108;28;20382;-32
2023/09/29 04:19:39;;;;;;;3.45;2.20;;;20.60;99.90;;;;;;5032138;28;20034;-33
2023/09/29 04:22:05;;;;;;;2.60;2.03;;;20.50;99.90;;;;;;5032071;28;20036;-35
2023/09/29 04:24:31;;;;;;;4.13;2.00;;;20.60;99.90;;;;;;5032052;28;20021;-33
2023/09/29 04:26:56;;;;;;;3.05;2.20;;;20.60;99.90;;;;;;5031951;28;20033;-33
2023/09/29 04:29:22;;;;;;;3.40;2.03;;;20.60;99.90;;;;;;5032061;28;20023;-33
2023/09/29 04:31:48;;;;;;;3.17;2.03;;;20.60;99.90;;;;;;5032060;28;20418;-33
2023/09/29 04:34:13;;;;;;;2.58;2.17;;;20.60;99.90;;;;;;5031919;28;20026;-36
2023/09/29 04:36:40;;;;;;;2.83;1.98;;;20.60;99.90;;;;;;5031686;28;20395;-33
2023/09/29 04:39:06;;;;;;;3.33;2.25;;;20.50;99.90;;;;;;5031926;28;20028;-34
2023/09/29 04:41:32;;;;;;;2.90;2.10;;;20.50;99.90;;;;;;5031770;28;20025;-37
2023/09/29 04:43:57;;;;;;;3.30;1.90;;;20.50;99.90;;;;;;5031813;28;20022;-33
2023/09/29 04:46:23;;;;;;;4.20;2.30;;;20.60;99.90;;;;;;5031385;28;20104;-35
2023/09/29 04:48:53;;;;;;;3.30;2.22;;;20.60;99.90;;;;;;5013897;28;20017;-33
2023/09/29 04:51:18;;;;;;;4.10;2.50;;;20.60;99.90;;;;;;5013867;28;20083;-33
2023/09/29 04:53:45;;;;;;;4.30;2.45;;;20.60;99.90;;;;;;5031605;28;20029;-34
2023/09/29 04:56:10;;;;;;;2.75;1.92;;;20.50;99.90;;;;;;5031421;28;20446;-33
2023/09/29 04:58:36;;;;;;;3.05;2.17;;;20.60;99.90;;;;;;5013870;28;20021;-34
2023/09/29 05:01:02;;;;;;;3.17;2.10;;;20.50;99.90;;;;;;5031483;28;20037;-36
2023/09/29 05:03:28;;;;;;;3.78;1.95;;;20.50;99.90;;;;;;5031521;28;20506;-33
2023/09/29 05:05:54;;;;;;;3.97;2.50;;;20.50;99.90;;;;;;5031267;28;20096;-34
2023/09/29 05:08:19;;;;;;;5.07;2.00;;;20.50;99.90;;;;;;5031495;28;20022;-33
2023/09/29 05:10:45;;;;;;;3.55;2.30;;;20.60;99.90;;;;;;5031991;28;20025;-33
2023/09/29 05:13:11;;;;;;;2.45;1.83;;;20.50;99.90;;;;;;5031415;28;20034;-36
2023/09/29 05:15:37;;;;;;;2.90;2.20;;;20.50;99.90;;;;;;5031001;28;20030;-36
2023/09/29 05:18:03;;;;;;;3.75;1.85;;;20.60;99.90;;;;;;5031528;28;20026;-35
2023/09/29 05:20:29;;;;;;;3.33;2.30;;;20.60;99.90;;;;;;5030939;28;20060;-39
2023/09/29 05:22:55;;;;;;;4.43;2.17;;;20.50;99.90;;;;;;5013555;28;20071;-36
2023/09/29 05:25:20;;;;;;;2.47;1.88;;;20.50;99.90;;;;;;5031120;28;20021;-38
2023/09/29 05:27:46;;;;;;;3.60;2.08;;;20.50;99.90;;;;;;5031180;28;20053;-36
2023/09/29 05:30:12;;;;;;;3.83;2.00;;;20.50;99.90;;;;;;5031182;28;20076;-32
2023/09/29 05:32:38;;;;;;;4.88;2.58;;;20.50;99.90;;;;;;5031232;28;20032;-39
2023/09/29 05:35:04;;;;;;;2.97;1.95;;;20.50;99.90;;;;;;5031290;28;20026;-35
2023/09/29 05:37:32;;;;;;;3.35;2.53;;;20.50;99.90;;;;;;5031151;28;20033;-33
2023/09/29 05:40:03;;;;;;;4.05;2.22;;;20.50;99.90;;;;;;5031108;28;20144;-40
2023/09/29 05:42:30;;;;;;;5.60;2.38;;;20.50;99.90;;;;;;5013444;28;20022;-36
2023/09/29 05:44:56;;;;;;;4.07;2.13;;;20.50;99.90;;;;;;5013199;28;20505;-35
2023/09/29 05:47:22;;;;;;;2.85;2.15;;;20.50;99.90;;;;;;5030899;28;20029;-35
2023/09/29 05:49:47;;;;;;;3.53;2.30;;;20.50;99.90;;;;;;5031056;28;20029;-37
2023/09/29 05:52:13;;;;;;;3.22;2.30;;;20.50;99.90;;;;;;5030978;28;20025;-36
2023/09/29 05:54:39;;;;;;;2.75;2.05;;;20.50;99.90;;;;;;5030849;28;20486;-34
2023/09/29 05:57:04;;;;;;;3.33;2.28;;;20.50;99.90;;;;;;5030898;28;20097;-34
2023/09/29 05:59:30;;;;;;;3.33;1.90;;;20.50;99.90;;;;;;5030865;28;20450;-41
2023/09/29 06:01:56;;;;;;;3.25;2.10;;;20.50;99.90;;;;;;5030946;28;20072;-37
2023/09/29 06:04:22;;;;;;;2.65;2.00;;;20.50;99.90;;;;;;5030907;28;20056;-35
2023/09/29 06:06:48;;;;;;;3.20;1.85;;;20.50;99.90;;;;;;5030689;28;20030;-36
2023/09/29 06:09:13;;;;;;;2.80;2.30;;;20.50;99.90;;;;;;5030947;28;20026;-40
2023/09/29 06:11:39;;;;;;;3.28;2.35;;;20.50;99.90;;;;;;5030869;28;20033;-35
2023/09/29 06:14:05;;;;;;;2.70;1.90;;;20.60;99.90;;;;;;5030713;28;20034;-36
2023/09/29 06:16:31;;;;;;;4.97;1.98;;;20.50;99.90;;;;;;5030584;28;20032;-34
2023/09/29 06:18:57;;;;;;;2.63;1.98;;;20.50;99.90;;;;;;5030916;28;20034;-41
2023/09/29 06:21:22;;;;;;;2.30;1.80;;;20.50;99.90;;;;;;5030654;28;20578;-33
2023/09/29 06:23:48;;;;;;;3.00;2.15;;;20.50;99.90;;;;;;5030766;28;20021;-32
2023/09/29 06:26:14;;;;;;;3.30;2.00;;;20.50;99.90;;;;;;5030776;28;20026;-34
2023/09/29 06:28:39;;;;;;;2.83;1.85;;;20.50;99.90;;;;;;5030969;28;20029;-34
2023/09/29 06:31:06;;;;;;;3.05;1.90;;;20.50;99.90;;;;;;5030685;28;20029;-35
2023/09/29 06:33:32;;;;;;;3.00;2.20;;;20.50;99.90;;;;;;5032912;28;20025;-36
2023/09/29 06:35:57;;;;;;;2.50;1.90;;;20.50;99.90;;;;;;5034163;28;20040;-36
2023/09/29 06:38:23;;;;;;;2.20;1.67;;;20.50;99.90;;;;;;5034557;28;20021;-37
2023/09/29 06:40:48;;;;;;;2.95;2.10;;;20.50;99.90;;;;;;5034012;28;20034;-43
2023/09/29 06:43:16;;;;;;;3.85;2.53;;;20.50;99.90;;;;;;5034133;28;20259;-40
2023/09/29 06:45:42;;;;;;;3.05;2.10;;;20.50;99.90;;;;;;5033896;28;20037;-40
2023/09/29 06:48:07;;;;;;;2.88;2.00;;;20.60;99.90;;;;;;5034000;28;20486;-34
2023/09/29 06:50:33;;;;;;;2.22;1.83;;;20.50;99.90;;;;;;5033914;28;20494;-37
2023/09/29 06:52:59;;;;;;;3.88;2.00;;;20.50;99.90;;;;;;5033934;28;20022;-41
2023/09/29 06:55:24;;;;;;;5.50;2.13;;;20.50;99.90;;;;;;5033634;28;20037;-33
2023/09/29 06:57:50;;;;;;;3.58;2.20;;;20.50;99.90;;;;;;5033593;28;20441;-39
2023/09/29 07:00:16;;;;;;;3.85;2.35;;;20.60;99.90;;;;;;5033687;28;20022;-41
2023/09/29 07:02:43;;;;;;;2.80;2.15;;;20.50;99.90;;;;;;5015835;28;20517;-33
2023/09/29 07:05:09;;;;;;;2.70;2.05;;;20.50;99.90;;;;;;5033550;28;20029;-34
2023/09/29 07:07:35;;;;;;;2.28;1.95;;;20.50;99.90;;;;;;5033458;28;20025;-39
2023/09/29 07:10:00;;;;;;;2.60;2.10;;;20.50;99.90;;;;;;5033629;28;20036;-43
2023/09/29 07:12:26;;;;;;;2.45;1.80;;;20.50;99.90;;;;;;5033378;28;20510;-40
2023/09/29 07:14:52;;;;;;;3.00;2.03;;;20.50;99.90;;;;;;5033451;28;20032;-34
2023/09/29 07:17:18;;;;;;;2.20;1.80;;;20.60;99.90;;;;;;5033307;28;20049;-34
2023/09/29 07:19:45;;;;;;;3.22;1.90;;;20.60;99.90;;;;;;5033772;28;20018;-34
2023/09/29 07:22:11;;;;;;;2.15;1.80;;;20.50;99.90;;;;;;5033439;28;20031;-33
2023/09/29 07:24:40;;;;;;;2.63;2.00;;;20.60;99.90;;;;;;5033660;28;20021;-34
2023/09/29 07:27:05;;;;;;;2.30;1.90;;;20.50;99.90;;;;;;5033121;28;20029;-34
2023/09/29 07:29:31;;;;;;;3.20;2.17;;;20.60;99.90;;;;;;5033414;28;20033;-33
2023/09/29 07:31:57;;;;;;;2.67;2.17;;;20.60;99.90;;;;;;5033235;28;20052;-33
2023/09/29 07:34:27;;;;;;;2.33;2.08;;;20.50;99.90;;;;;;5015273;28;20111;-33
2023/09/29 07:36:53;;;;;;;4.03;1.88;;;20.60;99.90;;;;;;5032807;28;20403;-33
2023/09/29 07:39:18;;;;;;;3.90;2.22;;;20.50;99.90;;;;;;5032963;28;20033;-34
2023/09/29 07:41:44;;;;;;;2.60;2.03;;;20.50;99.90;;;;;;5032777;28;20060;-33
2023/09/29 07:44:09;;;;;;;3.08;1.98;;;20.50;99.90;;;;;;5032801;28;20084;-33
2023/09/29 07:46:37;;;;;;;2.85;1.85;;;20.50;99.90;;;;;;5032517;28;20438;-33
2023/09/29 07:49:02;;;;;;;3.83;2.15;;;20.50;99.90;;;;;;5032861;28;20028;-33
2023/09/29 07:51:29;;;;;;;2.90;1.95;;;20.60;99.90;;;;;;5032964;28;20387;-33
2023/09/29 07:53:57;;;;;;;2.95;2.13;;;20.60;99.90;;;;;;5032883;28;20037;-35
2023/09/29 07:56:22;;;;;;;3.17;2.17;;;20.50;99.90;;;;;;5032480;28;20037;-35
2023/09/29 07:58:48;;;;;;;2.20;1.95;;;20.60;99.90;;;;;;5032820;28;20308;-35
2023/09/29 08:01:14;;;;;;;2.63;1.95;;;20.50;99.90;;;;;;5032598;28;20112;-34
2023/09/29 08:03:41;;;;;;;3.63;2.10;;;20.60;99.90;;;;;;5032621;28;20021;-35
2023/09/29 08:06:08;;;;;;;3.80;1.88;;;20.60;99.90;;;;;;5032351;28;20099;-34
2023/09/29 08:08:34;;;;;;;3.53;2.13;;;20.60;99.90;;;;;;5032486;28;20022;-36
2023/09/29 08:10:59;;;;;;;2.60;2.10;;;20.60;99.90;;;;;;5032375;28;20037;-35
2023/09/29 08:13:25;;;;;;;2.67;1.80;;;20.60;99.90;;;;;;5032578;28;20063;-35
2023/09/29 08:15:52;;;;;;;3.20;2.00;;;20.60;99.90;;;;;;5032253;28;20026;-37
2023/09/29 08:18:18;;;;;;;2.35;1.90;;;20.60;99.90;;;;;;5032681;28;20030;-36
2023/09/29 08:20:44;;;;;;;3.13;2.00;;;20.60;99.90;;;;;;5032499;28;20025;-35
2023/09/29 08:23:09;;;;;;;2.17;1.80;;;20.60;99.90;;;;;;5032113;28;20022;-36
2023/09/29 08:25:35;;;;;;;2.70;1.80;;;20.60;99.90;;;;;;5032030;28;20025;-35
2023/09/29 08:28:03;;;;;;;2.15;1.85;;;20.60;99.90;;;;;;5032205;28;20124;-36
2023/09/29 08:30:29;;;;;;;2.70;2.03;;;20.60;99.90;;;;;;5032042;28;20036;-38
2023/09/29 08:32:55;;;;;;;3.35;2.20;;;20.60;99.90;;;;;;5032096;28;20029;-36
2023/09/29 08:35:21;;;;;;;2.90;2.13;;;20.70;99.90;;;;;;5014313;28;20075;-36
2023/09/29 08:37:47;;;;;;;3.67;1.90;;;20.70;99.90;;;;;;5031897;28;20056;-37
2023/09/29 08:40:16;;;;;;;1.80;1.60;;;20.70;99.90;;;;;;5031937;28;20037;-36
2023/09/29 08:42:49;;;;;;;2.28;1.80;;;20.70;99.90;;;;;;5031836;28;20025;-35
2023/09/29 08:45:17;;;;;;;2.65;1.88;;;20.70;99.90;;;;;;5031569;28;20392;-36
2023/09/29 08:47:49;;;;;;;2.72;2.00;;;20.80;99.90;;;;;;5031758;28;20448;-35
2023/09/29 08:50:16;;;;;;;2.65;1.60;;;20.70;99.90;;;;;;5031718;28;20121;-37
2023/09/29 08:52:44;;;;;;;3.03;1.83;;;20.70;99.90;;;;;;5031650;28;20017;-35
2023/09/29 08:55:12;;;;;;;3.20;2.05;;;20.70;99.90;;;;;;5031092;28;20286;-36
2023/09/29 08:57:40;;;;;;;2.38;1.75;;;20.80;99.90;;;;;;5031680;28;20395;-38
2023/09/29 09:00:08;;;;;;;2.72;1.98;;;20.80;99.90;;;;;;5031560;28;20034;-37
2023/09/29 09:02:33;;;;;;;3.08;1.83;;;20.80;99.90;;;;;;5032044;28;20067;-36
2023/09/29 09:04:59;;;;;;;3.03;1.92;;;20.80;99.90;;;;;;5031324;28;20072;-36
2023/09/29 09:07:25;;;;;;;2.45;1.83;;;20.80;99.90;;;;;;5031377;28;20168;-35
2023/09/29 09:09:53;;;;;;;2.40;1.70;;;20.80;99.90;;;;;;5031500;28;20045;-36
2023/09/29 09:12:32;;;;;;;2.72;1.70;;;20.80;99.90;;;;;;5031369;28;20041;-36
2023/09/29 09:14:58;;;;;;;2.47;1.80;;;20.80;99.90;;;;;;5031776;28;20025;-37
2023/09/29 09:17:25;;;;;;;2.25;1.90;;;20.80;99.90;;;;;;5031146;28;20395;-37
2023/09/29 09:19:50;;;;;;;2.78;1.98;;;20.80;99.90;;;;;;5031446;28;20378;-35
2023/09/29 09:22:18;;;;;;;2.67;1.75;;;20.80;99.90;;;;;;5031521;28;20104;-35
2023/09/29 09:24:44;;;;;;;2.15;1.67;;;20.80;99.90;;;;;;5031627;28;20075;-36
2023/09/29 09:27:11;;;;;;;4.15;2.00;;;20.80;99.90;;;;;;5031335;28;20093;-35
2023/09/29 09:29:41;;;;;;;2.97;1.80;;;20.80;99.90;;;;;;5031382;28;20031;-40
2023/09/29 09:32:07;;;;;;;2.78;1.50;;;20.90;99.90;;;;;;5031274;28;20292;-37
2023/09/29 09:34:35;;;;;;;2.10;1.80;;;20.90;99.90;;;;;;5031241;28;20084;-33
2023/09/29 09:37:02;;;;;;;2.38;1.90;;;20.90;99.90;;;;;;5031098;28;20061;-39
2023/09/29 09:39:29;;;;;;;3.10;1.83;;;20.80;99.90;;;;;;5031141;28;20025;-37
2023/09/29 09:41:59;;;;;;;2.33;1.70;;;20.90;99.90;;;;;;5013309;28;20441;-36
2023/09/29 09:44:26;;;;;;;2.83;2.00;;;20.90;99.90;;;;;;5031046;28;20031;-33
2023/09/29 09:46:53;;;;;;;2.35;1.95;;;20.90;99.90;;;;;;5031265;28;20455;-37
2023/09/29 09:49:28;;;;;;;3.40;2.03;;;20.90;99.90;;;;;;5013387;28;20449;-42
2023/09/29 09:51:57;;;;;;;2.60;1.90;;;20.90;99.90;;;;;;5031146;28;20030;-37
2023/09/29 09:54:30;;;;;;;3.63;2.22;;;20.90;99.90;;;;;;5031268;28;20025;-40
2023/09/29 09:57:09;;;;;;;2.55;1.88;;;20.90;99.90;;;;;;5030700;28;20556;-37
2023/09/29 09:59:36;;;;;;;2.83;1.67;;;20.90;99.90;;;;;;5030979;28;20040;-41
2023/09/29 10:02:06;;;;;;;2.53;1.80;;;20.90;99.90;;;;;;5031009;28;20383;-34
2023/09/29 10:04:38;;;;;;;2.85;1.85;;;20.90;99.90;;;;;;5031171;28;20049;-37
2023/09/29 10:07:05;;;;;;;1.90;1.60;;;21.00;99.90;;;;;;5030884;28;20026;-33
2023/09/29 10:10:00;;;;;;;2.47;1.83;;;21.00;99.90;;;;;;5034743;28;20025;-33
2023/09/29 10:12:28;;;;;;;2.35;1.75;;;21.00;99.90;;;;;;5018051;28;20045;-36
2023/09/29 10:14:56;;;;;;;2.53;1.65;;;21.00;99.90;;;;;;5034798;28;20071;-39
2023/09/29 10:17:22;;;;;;;3.28;2.05;;;21.00;99.90;;;;;;5034534;28;20030;-36
2023/09/29 10:19:53;;;;;;;3.40;1.95;;;21.00;99.90;;;;;;5034623;28;20025;-37
2023/09/29 10:22:24;;;;;;;6.20;2.10;;;21.00;99.90;;;;;;5034415;28;20022;-36
2023/09/29 10:24:56;;;;;;;4.28;1.67;;;21.10;99.90;;;;;;5034414;28;20030;-36
2023/09/29 10:27:33;;;;;;;3.10;1.55;;;21.10;99.90;;;;;;5016549;28;20032;-37
2023/09/29 10:30:18;;;;;;;3.30;1.90;;;21.10;99.90;;;;;;5034329;28;20025;-35
2023/09/29 10:32:46;;;;;;;3.25;2.05;;;21.10;99.90;;;;;;5034655;28;20085;-37
2023/09/29 10:35:19;;;;;;;3.28;2.00;;;21.10;99.90;;;;;;5034170;28;20071;-38
2023/09/29 10:37:54;;;;;;;3.67;1.95;;;21.10;99.90;;;;;;5034238;28;20018;-37
2023/09/29 10:40:22;;;;;;;2.60;1.50;;;21.10;99.90;;;;;;5016514;28;20108;-36
2023/09/29 10:42:48;;;;;;;2.58;1.95;;;21.10;99.90;;;;;;5033978;28;20113;-36
2023/09/29 10:45:28;;;;;;;2.15;1.65;;;21.20;99.90;;;;;;5033919;28;20026;-36
2023/09/29 10:48:00;;;;;;;2.50;1.80;;;21.20;99.90;;;;;;5034215;28;20025;-37
2023/09/29 10:50:26;;;;;;;4.38;2.08;;;21.20;99.90;;;;;;5034358;28;20025;-37
2023/09/29 10:52:52;;;;;;;5.65;2.10;;;21.20;99.90;;;;;;5033996;28;20052;-37
2023/09/29 10:55:18;;;;;;;6.28;2.25;;;21.20;99.90;;;;;;5033765;28;20104;-43
2023/09/29 10:57:47;;;;;;;7.63;2.25;;;21.40;99.90;;;;;;5033756;28;20100;-40
2023/09/29 11:00:14;;;;;;;5.20;2.67;;;21.50;99.90;;;;;;5033900;28;20030;-39
2023/09/29 11:02:40;;;;;;;5.18;2.65;;;21.60;99.90;;;;;;5034002;28;20021;-43
2023/09/29 11:05:09;;;;;;;6.25;2.47;;;21.60;99.90;;;;;;5033808;28;20121;-40
2023/09/29 11:08:02;;;;;;;4.38;2.70;;;21.60;99.90;;;;;;5034029;28;20025;-39
2023/09/29 11:10:27;;;;;;;5.65;2.47;;;21.70;99.90;;;;;;5031481;28;20041;-36
2023/09/29 11:12:53;;;;;;;8.30;2.50;;;21.70;99.90;;;;;;5035211;28;20044;-37
2023/09/29 11:15:19;;;;;;;5.15;2.50;;;21.70;99.90;;;;;;5036147;28;20485;-36
2023/09/29 11:17:50;;;;;;;4.45;2.70;;;21.70;99.90;;;;;;5033763;28;20546;-38
2023/09/29 11:20:27;;;;;;;7.55;2.50;;;21.80;99.90;;;;;;5033124;28;20108;-38
2023/09/29 11:23:01;;;;;;;4.80;2.63;;;21.80;99.90;;;;;;5033555;28;20482;-38
2023/09/29 11:25:26;;;;;;;4.65;2.58;;;21.80;99.90;;;;;;5033150;28;20028;-38
2023/09/29 11:27:52;;;;;;;5.90;2.78;;;21.80;99.90;;;;;;5033148;28;20026;-39
2023/09/29 11:30:24;;;;;;;4.88;2.63;;;21.80;99.90;;;;;;5033238;28;20036;-37
2023/09/29 11:32:50;;;;;;;3.90;2.17;;;21.80;99.90;;;;;;5015444;28;20025;-38
2023/09/29 11:35:16;;;;;;;3.67;2.10;;;21.80;99.90;;;;;;5033121;28;20026;-37
2023/09/29 11:37:43;;;;;;;3.53;2.50;;;21.80;99.90;;;;;;5033161;28;20118;-37
2023/09/29 11:40:12;;;;;;;4.22;2.17;;;21.80;99.90;;;;;;5032965;28;20049;-37
2023/09/29 11:42:39;;;;;;;2.88;2.17;;;21.80;99.90;;;;;;5032830;28;20470;-37
2023/09/29 11:45:08;;;;;;;3.08;2.20;;;21.90;99.90;;;;;;5032825;28;20486;-36
2023/09/29 11:47:37;;;;;;;4.05;2.45;;;21.80;99.90;;;;;;5032688;28;20033;-39
2023/09/29 11:50:03;;;;;;;3.50;2.13;;;21.90;99.90;;;;;;5033127;28;20441;-40
2023/09/29 11:52:28;;;;;;;3.75;2.20;;;21.90;99.90;;;;;;5032884;28;20645;-39
2023/09/29 11:54:54;;;;;;;5.65;2.17;;;21.90;99.90;;;;;;5032752;28;20474;-39
2023/09/29 11:57:20;;;;;;;3.40;1.83;;;21.90;99.90;;;;;;5032639;28;20061;-37
2023/09/29 11:59:46;;;;;;;5.75;2.47;;;21.90;99.90;;;;;;5032704;28;20083;-37
2023/09/29 12:02:13;;;;;;;4.85;2.35;;;21.90;99.90;;;;;;5032722;28;20041;-37
2023/09/29 12:04:39;;;;;;;3.50;2.33;;;21.90;99.90;;;;;;5032500;28;20362;-37
2023/09/29 12:07:05;;;;;;;2.40;1.98;;;21.90;99.90;;;;;;5032438;28;20432;-37
2023/09/29 12:09:30;;;;;;;3.83;2.28;;;21.90;99.90;;;;;;5014850;28;20064;-34
2023/09/29 12:12:00;;;;;;;3.30;2.33;;;21.90;99.90;;;;;;5032393;28;20510;-34
2023/09/29 12:14:26;;;;;;;6.47;2.53;;;21.90;99.90;;;;;;5014533;28;20534;-35
2023/09/29 12:16:53;;;;;;;6.82;2.40;;;22.00;99.90;;;;;;5032189;28;20025;-33
2023/09/29 12:19:20;;;;;;;5.38;2.40;;;22.10;99.90;;;;;;5032404;28;20542;-34
2023/09/29 12:21:47;;;;;;;4.55;2.63;;;22.10;99.90;;;;;;5032185;28;20474;-33
2023/09/29 12:24:14;;;;;;;4.05;2.28;;;22.20;99.90;;;;;;5032220;28;20554;-33
2023/09/29 12:26:46;;;;;;;3.58;2.20;;;22.30;99.90;;;;;;5031899;28;20017;-34
2023/09/29 12:29:12;;;;;;;4.75;2.50;;;22.30;99.90;;;;;;5032594;28;20017;-36
2023/09/29 12:31:38;;;;;;;4.00;2.35;;;22.30;99.90;;;;;;5031418;28;20108;-34
2023/09/29 12:34:04;;;;;;;7.00;2.20;;;22.30;99.90;;;;;;5032058;28;20148;-36
2023/09/29 12:36:30;;;;;;;5.13;2.20;;;22.30;99.90;;;;;;5031747;28;20086;-33
2023/09/29 12:38:56;;;;;;;3.58;2.13;;;22.30;99.90;;;;;;5031957;28;20556;-36
2023/09/29 12:41:22;;;;;;;2.70;2.10;;;22.30;99.90;;;;;;5031794;28;20057;-33
2023/09/29 12:43:47;;;;;;;4.38;2.30;;;22.30;99.90;;;;;;5031791;28;20147;-34
2023/09/29 12:46:13;;;;;;;4.15;2.30;;;22.30;99.90;;;;;;5031539;28;20090;-35